Time;durP1;ratioP1;P1;durP2;ratioP2;P2;SDS_P1;SDS_P2;PMS_P1;PMS_P2;Temp;Humidity;BMP_temperature;BMP_pressure;BME280_temperature;BME280_humidity;BME280_pressure;Samples;Min_cycle;Max_cycle;Signal;HPM_P1;HPM_P2
2022/05/06 00:00:00;;;;;;;;;;;;;;;10.61;83.67;97411.38;30001;982;1882;-58
2022/05/06 00:00:31;;;;;;;;;;;;;;;10.61;84.03;97408.66;30001;982;1886;-59
2022/05/06 00:01:04;;;;;;;;;;;;;;;10.62;83.91;97412.19;30001;982;1882;-60
2022/05/06 00:01:38;;;;;;;;;;;;;;;10.62;83.84;97413.00;30001;982;1886;-61
2022/05/06 00:02:13;;;;;;;;;;;;;;;10.61;83.95;97408.66;30001;983;1881;-61
2022/05/06 00:02:44;;;;;;;;;;;;;;;10.62;83.85;97413.00;30001;983;1872;-60
2022/05/06 00:03:15;;;;;;;;;;;;;;;10.62;84.00;97413.00;30001;983;1872;-63
2022/05/06 00:03:46;;;;;;;;;;;;;;;10.62;83.34;97409.47;30001;983;1886;-60
2022/05/06 00:04:17;;;;;;;;;;;;;;;10.61;83.68;97413.28;30001;983;1881;-60
2022/05/06 00:04:48;;;;;;;;;;;;;;;10.62;83.35;97410.28;30001;983;1886;-61
2022/05/06 00:05:19;;;;;;;;;;;;;;;10.61;83.53;97405.16;30001;983;1881;-60
2022/05/06 00:05:50;;;;;;;;;;;;;;;10.60;83.53;97404.34;30001;983;1886;-60
2022/05/06 00:06:21;;;;;;;;;;;;;;;10.61;83.42;97399.72;30001;982;1882;-60
2022/05/06 00:06:52;;;;;;;;;;;;;;;10.61;83.44;97408.66;30001;982;1886;-60
2022/05/06 00:07:23;;;;;;;;;;;;;;;10.61;83.49;97405.94;30001;982;1882;-60
2022/05/06 00:07:54;;;;;;;;;;;;;;;10.61;83.66;97408.66;30001;982;1873;-60
2022/05/06 00:08:25;;;;;;;;;;;;;;;10.61;83.71;97405.16;30001;982;1873;-60
2022/05/06 00:08:57;;;;;;;;;;;;;;;10.62;83.75;97407.56;30001;982;1886;-61
2022/05/06 00:09:28;;;;;;;;;;;;;;;10.61;83.68;97408.66;30001;982;1882;-60
2022/05/06 00:10:01;;;;;;;;;;;;;;;10.61;83.61;97413.28;30001;983;1885;-61
2022/05/06 00:10:32;;;;;;;;;;;;;;;10.61;83.65;97416.81;30001;983;1881;-61
2022/05/06 00:11:06;;;;;;;;;;;;;;;10.63;83.59;97411.09;30001;983;1886;-59
2022/05/06 00:11:37;;;;;;;;;;;;;;;10.62;84.04;97409.47;30001;983;1881;-59
2022/05/06 00:12:08;;;;;;;;;;;;;;;10.61;83.58;97403.25;30001;983;1886;-60
2022/05/06 00:12:39;;;;;;;;;;;;;;;10.63;83.68;97411.09;30001;983;1881;-60
2022/05/06 00:13:10;;;;;;;;;;;;;;;10.62;83.95;97415.72;30001;983;1873;-61
2022/05/06 00:13:41;;;;;;;;;;;;;;;10.63;83.85;97413.81;30001;983;1873;-61
2022/05/06 00:14:12;;;;;;;;;;;;;;;10.62;83.50;97412.19;30001;982;1886;-59
2022/05/06 00:14:42;;;;;;;;;;;;;;;10.62;83.78;97415.72;30001;982;1882;-60
2022/05/06 00:15:14;;;;;;;;;;;;;;;10.62;83.42;97410.28;30001;982;1886;-60
2022/05/06 00:15:45;;;;;;;;;;;;;;;10.61;83.79;97402.44;30001;982;1882;-60
2022/05/06 00:16:18;;;;;;;;;;;;;;;10.61;83.33;97413.28;30001;982;1886;-60
2022/05/06 00:16:49;;;;;;;;;;;;;;;10.62;83.44;97410.28;30001;982;1882;-61
2022/05/06 00:17:21;;;;;;;;;;;;;;;10.62;83.39;97415.72;30001;983;1885;-60
2022/05/06 00:17:52;;;;;;;;;;;;;;;10.62;83.54;97415.72;30001;983;1881;-61
2022/05/06 00:18:23;;;;;;;;;;;;;;;10.62;83.47;97406.78;30001;983;1872;-61
2022/05/06 00:18:54;;;;;;;;;;;;;;;10.61;83.77;97408.66;30001;983;1873;-60
2022/05/06 00:19:25;;;;;;;;;;;;;;;10.61;83.48;97416.81;30001;983;1885;-61
2022/05/06 00:19:56;;;;;;;;;;;;;;;10.62;83.87;97414.91;30001;983;1881;-59
2022/05/06 00:20:27;;;;;;;;;;;;;;;10.61;83.31;97414.09;30001;983;1886;-61
2022/05/06 00:20:58;;;;;;;;;;;;;;;10.61;83.36;97408.66;30001;983;1864;-60
2022/05/06 00:21:29;;;;;;;;;;;;;;;10.61;83.68;97408.66;30001;982;1873;-60
2022/05/06 00:22:00;;;;;;;;;;;;;;;10.61;83.78;97408.66;30001;982;1877;-60
2022/05/06 00:22:31;;;;;;;;;;;;;;;10.61;83.32;97413.28;30001;982;1882;-60
2022/05/06 00:23:04;;;;;;;;;;;;;;;10.62;83.55;97413.00;30001;982;1864;-61
2022/05/06 00:23:34;;;;;;;;;;;;;;;10.61;83.91;97413.28;30001;982;1873;-59
2022/05/06 00:24:06;;;;;;;;;;;;;;;10.61;84.23;97416.81;30001;982;1878;-60
2022/05/06 00:24:38;;;;;;;;;;;;;;;10.60;83.71;97412.47;30001;982;1882;-60
2022/05/06 00:25:09;;;;;;;;;;;;;;;10.61;83.62;97414.09;30001;983;1876;-60
2022/05/06 00:25:40;;;;;;;;;;;;;;;10.62;83.73;97414.91;30001;983;1881;-60
2022/05/06 00:26:11;;;;;;;;;;;;;;;10.61;84.20;97408.66;30001;983;1877;-60
2022/05/06 00:26:42;;;;;;;;;;;;;;;10.62;83.71;97415.72;30001;983;1881;-60
2022/05/06 00:27:13;;;;;;;;;;;;;;;10.62;83.60;97413.00;30001;983;1877;-60
2022/05/06 00:27:44;;;;;;;;;;;;;;;10.64;83.33;97413.53;30001;983;1881;-60
2022/05/06 00:28:18;;;;;;;;;;;;;;;10.63;83.28;97414.63;30001;983;1864;-61
2022/05/06 00:28:49;;;;;;;;;;;;;;;10.63;83.40;97411.91;30001;983;1873;-59
2022/05/06 00:29:20;;;;;;;;;;;;;;;10.64;83.43;97408.13;30001;982;1877;-59
2022/05/06 00:29:51;;;;;;;;;;;;;;;10.65;83.07;97409.72;30001;982;1882;-60
2022/05/06 00:30:23;;;;;;;;;;;;;;;10.66;83.33;97414.06;30001;982;1864;-60
2022/05/06 00:30:53;;;;;;;;;;;;;;;10.68;83.39;97414.59;30001;982;1873;-59
2022/05/06 00:31:24;;;;;;;;;;;;;;;10.68;83.46;97411.06;30001;983;1876;-60
2022/05/06 00:31:56;;;;;;;;;;;;;;;10.68;83.28;97419.22;30001;983;1881;-60
2022/05/06 00:32:27;;;;;;;;;;;;;;;10.67;83.54;97412.97;30001;983;1877;-60
2022/05/06 00:32:59;;;;;;;;;;;;;;;10.68;83.53;97414.59;30001;983;1881;-61
2022/05/06 00:33:31;;;;;;;;;;;;;;;10.69;83.02;97413.50;30001;983;1864;-61
2022/05/06 00:34:02;;;;;;;;;;;;;;;10.72;82.70;97415.66;30001;983;1872;-61
2022/05/06 00:34:33;;;;;;;;;;;;;;;10.73;82.94;97411.06;30001;983;1877;-60
2022/05/06 00:35:04;;;;;;;;;;;;;;;10.77;82.65;97417.50;30001;983;1868;-60
2022/05/06 00:35:38;;;;;;;;;;;;;;;10.84;81.40;97411.78;30001;983;1869;-59
2022/05/06 00:36:09;;;;;;;;;;;;;;;10.90;80.79;97413.38;30001;983;1882;-60
2022/05/06 00:36:40;;;;;;;;;;;;;;;10.94;80.50;97406.28;30001;982;1877;-61
2022/05/06 00:37:11;;;;;;;;;;;;;;;10.93;80.58;97410.91;30001;982;1784;-60
2022/05/06 00:37:41;;;;;;;;;;;;;;;10.91;80.71;97404.94;30001;982;1868;-63
2022/05/06 00:38:12;;;;;;;;;;;;;;;10.94;80.59;97409.00;30001;986;1882;-60
2022/05/06 00:38:43;;;;;;;;;;;;;;;10.94;80.70;97406.28;30001;982;1877;-61
2022/05/06 00:39:14;;;;;;;;;;;;;;;10.94;80.36;97411.72;30001;983;1881;-60
2022/05/06 00:39:46;;;;;;;;;;;;;;;10.91;80.85;97402.22;30001;983;1877;-60
2022/05/06 00:40:16;;;;;;;;;;;;;;;10.90;80.87;97410.66;30001;983;1881;-60
2022/05/06 00:40:48;;;;;;;;;;;;;;;10.88;81.27;97410.13;30001;983;1877;-60
2022/05/06 00:41:19;;;;;;;;;;;;;;;10.85;80.82;97406.06;30001;983;1881;-55
2022/05/06 00:41:52;;;;;;;;;;;;;;;10.84;80.87;97407.16;30001;983;1864;-61
2022/05/06 00:42:23;;;;;;;;;;;;;;;10.86;81.06;97404.16;30001;983;1873;-56
2022/05/06 00:42:56;;;;;;;;;;;;;;;10.90;81.16;97405.22;30001;983;1877;-60
2022/05/06 00:43:27;;;;;;;;;;;;;;;10.95;80.22;97413.34;30001;983;1882;-57
2022/05/06 00:43:58;;;;;;;;;;;;;;;10.96;80.33;97409.53;30001;982;1877;-60
2022/05/06 00:44:29;;;;;;;;;;;;;;;10.95;80.37;97402.47;30001;982;1882;-60
2022/05/06 00:45:02;;;;;;;;;;;;;;;10.96;80.47;97404.09;30001;982;1877;-61
2022/05/06 00:45:39;;;;;;;;;;;;;;;11.00;80.16;97399.72;30001;982;1882;-61
2022/05/06 00:46:15;;;;;;;;;;;;;;;11.03;79.85;97404.59;30001;982;1864;-61
2022/05/06 00:46:46;;;;;;;;;;;;;;;11.03;80.06;97410.03;30001;983;1872;-60
2022/05/06 00:47:20;;;;;;;;;;;;;;;11.00;80.13;97402.44;30001;983;1877;-61
2022/05/06 00:47:51;;;;;;;;;;;;;;;10.99;80.18;97403.53;30001;983;1881;-61
2022/05/06 00:48:23;;;;;;;;;;;;;;;10.97;80.18;97400.28;30001;983;1877;-60
2022/05/06 00:48:55;;;;;;;;;;;;;;;10.97;80.15;97401.09;30001;983;1881;-62
2022/05/06 00:49:26;;;;;;;;;;;;;;;10.99;80.11;97403.53;30001;983;1877;-61
2022/05/06 00:50:03;;;;;;;;;;;;;;;10.99;79.96;97403.53;30001;983;1868;-60
2022/05/06 00:50:34;;;;;;;;;;;;;;;10.98;80.04;97405.44;30001;983;1808;-62
2022/05/06 00:51:06;;;;;;;;;;;;;;;11.02;79.68;97400.25;30001;982;1881;-61
2022/05/06 00:51:38;;;;;;;;;;;;;;;11.03;79.32;97399.16;30001;982;1877;-60
2022/05/06 00:52:09;;;;;;;;;;;;;;;11.01;79.65;97406.78;30001;982;1881;-59
2022/05/06 00:52:40;;;;;;;;;;;;;;;11.00;79.72;97408.69;30001;982;1877;-63
2022/05/06 00:53:12;;;;;;;;;;;;;;;11.03;79.62;97404.59;30001;982;1803;-61
2022/05/06 00:53:43;;;;;;;;;;;;;;;11.02;79.44;97402.97;30001;982;1864;-58
2022/05/06 00:54:15;;;;;;;;;;;;;;;11.01;79.48;97409.50;30001;965;1890;-60
2022/05/06 00:54:49;;;;;;;;;;;;;;;11.01;79.44;97406.78;30001;983;1877;-63
2022/05/06 00:55:21;;;;;;;;;;;;;;;11.02;79.22;97408.41;30001;983;1881;-60
2022/05/06 00:55:53;;;;;;;;;;;;;;;11.02;79.31;97402.97;30001;983;1864;-61
2022/05/06 00:56:24;;;;;;;;;;;;;;;11.02;79.45;97401.06;30001;983;1872;-60
2022/05/06 00:56:56;;;;;;;;;;;;;;;11.01;79.52;97402.16;30001;983;1877;-60
2022/05/06 00:57:27;;;;;;;;;;;;;;;10.99;79.67;97409.78;30001;983;1882;-61
2022/05/06 00:57:58;;;;;;;;;;;;;;;10.97;79.95;97403.81;30001;983;1877;-59
2022/05/06 00:58:31;;;;;;;;;;;;;;;10.98;80.13;97402.72;30001;982;1881;-61
2022/05/06 00:59:02;;;;;;;;;;;;;;;10.99;79.91;97401.63;30001;982;1877;-60
2022/05/06 00:59:33;;;;;;;;;;;;;;;10.99;79.92;97398.09;30001;982;1882;-60
2022/05/06 01:00:24;;;;;;;;;;;;;;;11.03;79.41;97404.59;30001;982;1864;-60
2022/05/06 01:00:55;;;;;;;;;;;;;;;11.01;79.71;97407.59;30001;982;1873;-61
2022/05/06 01:01:27;;;;;;;;;;;;;;;11.00;79.95;97399.72;30001;982;1877;-61
2022/05/06 01:01:58;;;;;;;;;;;;;;;10.98;80.05;97400.00;30001;983;1881;-60
2022/05/06 01:02:29;;;;;;;;;;;;;;;10.98;80.13;97402.72;30001;983;1877;-59
2022/05/06 01:03:00;;;;;;;;;;;;;;;10.98;79.94;97404.63;30001;983;1881;-60
2022/05/06 01:03:31;;;;;;;;;;;;;;;10.95;80.10;97402.47;30001;983;1877;-60
2022/05/06 01:04:03;;;;;;;;;;;;;;;10.92;80.40;97394.91;30001;983;1881;-59
2022/05/06 01:04:34;;;;;;;;;;;;;;;10.89;80.57;97398.97;30001;983;1877;-60
2022/05/06 01:05:07;;;;;;;;;;;;;;;10.88;80.70;97393.84;30001;983;1882;-59
2022/05/06 01:05:39;;;;;;;;;;;;;;;10.87;80.75;97406.59;30001;983;1864;-60
2022/05/06 01:06:16;;;;;;;;;;;;;;;10.86;81.04;97404.16;30001;982;1873;-60
2022/05/06 01:06:47;;;;;;;;;;;;;;;10.83;81.59;97405.53;30001;982;1877;-58
2022/05/06 01:07:19;;;;;;;;;;;;;;;10.80;81.97;97405.28;30001;982;1868;-59
2022/05/06 01:07:51;;;;;;;;;;;;;;;10.78;81.82;97404.75;30001;982;1869;-61
2022/05/06 01:08:21;;;;;;;;;;;;;;;10.75;82.26;97406.94;30001;982;1882;-59
2022/05/06 01:08:52;;;;;;;;;;;;;;;10.74;82.82;97402.59;30001;982;1878;-60
2022/05/06 01:09:23;;;;;;;;;;;;;;;10.73;83.12;97405.62;30001;983;1881;-59
2022/05/06 01:09:54;;;;;;;;;;;;;;;10.70;83.47;97398.84;30001;983;1877;-60
2022/05/06 01:10:25;;;;;;;;;;;;;;;10.69;82.83;97401.84;30001;983;1881;-61
2022/05/06 01:10:57;;;;;;;;;;;;;;;10.70;82.84;97406.19;30001;966;1894;-61
2022/05/06 01:11:28;;;;;;;;;;;;;;;10.70;82.67;97401.56;30001;983;1881;-57
2022/05/06 01:11:59;;;;;;;;;;;;;;;10.69;82.53;97402.66;30001;983;1877;-60
2022/05/06 01:12:30;;;;;;;;;;;;;;;10.69;82.54;97402.66;30001;983;1868;-61
2022/05/06 01:13:01;;;;;;;;;;;;;;;10.69;82.54;97405.38;30001;983;1869;-60
2022/05/06 01:13:38;;;;;;;;;;;;;;;10.68;82.30;97403.75;30001;982;1882;-60
2022/05/06 01:14:09;;;;;;;;;;;;;;;10.68;82.54;97403.75;30001;982;1878;-60
2022/05/06 01:14:40;;;;;;;;;;;;;;;10.68;82.39;97402.94;30001;982;1882;-59
2022/05/06 01:15:18;;;;;;;;;;;;;;;10.68;82.17;97398.31;30001;982;1878;-61
2022/05/06 01:15:49;;;;;;;;;;;;;;;10.68;82.02;97401.03;30001;983;1881;-60
2022/05/06 01:16:21;;;;;;;;;;;;;;;10.68;82.11;97402.94;30001;983;1877;-56
2022/05/06 01:16:52;;;;;;;;;;;;;;;10.68;82.07;97398.31;30001;983;1873;-60
2022/05/06 01:17:22;;;;;;;;;;;;;;;10.68;81.99;97402.94;30001;983;1877;-60
2022/05/06 01:17:55;;;;;;;;;;;;;;;10.71;81.93;97403.19;30001;983;1868;-59
2022/05/06 01:18:25;;;;;;;;;;;;;;;10.73;81.60;97401.00;30001;983;1868;-59
2022/05/06 01:18:56;;;;;;;;;;;;;;;10.72;81.93;97404.81;30001;983;1881;-59
2022/05/06 01:19:27;;;;;;;;;;;;;;;10.72;81.87;97409.44;30001;983;1877;-61
2022/05/06 01:19:57;;;;;;;;;;;;;;;10.70;82.39;97407.00;30001;983;1881;-59
2022/05/06 01:20:28;;;;;;;;;;;;;;;10.68;82.08;97403.75;30001;983;1877;-61
2022/05/06 01:21:00;;;;;;;;;;;;;;;10.68;82.44;97409.19;30001;982;1868;-60
2022/05/06 01:21:35;;;;;;;;;;;;;;;10.66;82.18;97403.22;30001;982;1868;-60
2022/05/06 01:22:06;;;;;;;;;;;;;;;10.67;82.22;97402.13;30001;982;1882;-61
2022/05/06 01:22:36;;;;;;;;;;;;;;;10.65;82.16;97398.88;30001;982;1878;-61
2022/05/06 01:23:09;;;;;;;;;;;;;;;10.66;82.03;97405.12;30001;982;1882;-61
2022/05/06 01:23:40;;;;;;;;;;;;;;;10.65;82.48;97407.03;30001;983;1877;-60
2022/05/06 01:24:10;;;;;;;;;;;;;;;10.65;82.34;97408.91;30001;983;1881;-60
2022/05/06 01:24:41;;;;;;;;;;;;;;;10.65;82.44;97415.16;30001;983;1877;-61
2022/05/06 01:25:12;;;;;;;;;;;;;;;10.66;82.47;97410.53;30001;983;1881;-60
2022/05/06 01:25:44;;;;;;;;;;;;;;;10.68;82.47;97409.19;30001;983;1877;-61
2022/05/06 01:26:14;;;;;;;;;;;;;;;10.67;82.33;97407.56;30001;983;1868;-60
2022/05/06 01:26:56;;;;;;;;;;;;;;;10.67;82.32;97410.28;30001;983;1868;-61
2022/05/06 01:27:32;;;;;;;;;;;;;;;10.65;82.17;97407.03;30001;983;1882;-62
2022/05/06 01:28:04;;;;;;;;;;;;;;;10.65;82.48;97403.50;30001;983;1877;-61
2022/05/06 01:28:36;;;;;;;;;;;;;;;10.67;82.37;97407.56;30001;982;1882;-61
2022/05/06 01:29:09;;;;;;;;;;;;;;;10.67;82.42;97406.75;30001;982;1877;-61
2022/05/06 01:29:40;;;;;;;;;;;;;;;10.66;82.64;97411.34;30001;982;1882;-61
2022/05/06 01:30:23;;;;;;;;;;;;;;;10.65;82.76;97400.78;30001;982;1878;-62
2022/05/06 01:31:00;;;;;;;;;;;;;;;10.61;82.66;97408.66;30001;983;1881;-61
2022/05/06 01:31:32;;;;;;;;;;;;;;;10.61;82.80;97403.25;30001;983;1864;-62
2022/05/06 01:32:04;;;;;;;;;;;;;;;10.60;83.36;97412.47;30001;984;1872;-62
2022/05/06 01:32:37;;;;;;;;;;;;;;;10.61;83.13;97408.66;30001;983;1877;-60
2022/05/06 01:33:12;;;;;;;;;;;;;;;10.63;83.02;97411.91;30001;983;1868;-61
2022/05/06 01:33:44;;;;;;;;;;;;;;;10.64;82.91;97413.53;30001;983;1868;-60
2022/05/06 01:34:17;;;;;;;;;;;;;;;10.64;82.95;97402.69;30001;983;1881;-59
2022/05/06 01:34:50;;;;;;;;;;;;;;;10.64;82.55;97410.81;30001;983;1877;-62
2022/05/06 01:35:22;;;;;;;;;;;;;;;10.63;82.68;97414.63;30001;983;1881;-61
2022/05/06 01:35:55;;;;;;;;;;;;;;;10.62;83.05;97410.28;30001;983;1877;-62
2022/05/06 01:36:27;;;;;;;;;;;;;;;10.64;82.99;97407.31;30001;982;1882;-61
2022/05/06 01:37:00;;;;;;;;;;;;;;;10.64;82.95;97408.13;30001;982;1878;-61
2022/05/06 01:37:34;;;;;;;;;;;;;;;10.64;82.99;97410.81;30001;982;1869;-61
2022/05/06 01:38:05;;;;;;;;;;;;;;;10.65;82.55;97414.34;30001;982;1869;-61
2022/05/06 01:38:39;;;;;;;;;;;;;;;10.64;82.71;97408.13;30001;983;1881;-61
2022/05/06 01:39:12;;;;;;;;;;;;;;;10.64;82.63;97408.13;30001;983;1877;-60
2022/05/06 01:39:45;;;;;;;;;;;;;;;10.64;82.68;97413.53;30001;983;1881;-61
2022/05/06 01:40:18;;;;;;;;;;;;;;;10.62;82.88;97407.56;30001;983;1777;-60
2022/05/06 01:40:52;;;;;;;;;;;;;;;10.62;83.19;97410.28;30001;983;1881;-60
2022/05/06 01:41:24;;;;;;;;;;;;;;;10.61;82.76;97408.66;30001;983;1864;-62
2022/05/06 01:41:55;;;;;;;;;;;;;;;10.62;82.93;97409.47;30001;983;1873;-61
2022/05/06 01:42:27;;;;;;;;;;;;;;;10.61;82.75;97414.09;30001;983;1864;-60
2022/05/06 01:42:59;;;;;;;;;;;;;;;10.61;82.77;97414.09;30001;982;1860;-59
2022/05/06 01:43:33;;;;;;;;;;;;;;;10.61;82.90;97408.66;30001;982;1877;-60
2022/05/06 01:44:05;;;;;;;;;;;;;;;10.62;82.83;97409.47;30001;982;1869;-60
2022/05/06 01:44:40;;;;;;;;;;;;;;;10.59;83.17;97413.56;30001;982;1869;-60
2022/05/06 01:45:14;;;;;;;;;;;;;;;10.60;83.11;97412.47;30001;982;1882;-62
2022/05/06 01:45:48;;;;;;;;;;;;;;;10.60;83.24;97411.66;30001;982;1878;-62
2022/05/06 01:46:21;;;;;;;;;;;;;;;10.61;83.17;97408.66;30001;983;1881;-60
2022/05/06 01:46:54;;;;;;;;;;;;;;;10.62;83.11;97415.72;30001;983;1877;-60
2022/05/06 01:47:26;;;;;;;;;;;;;;;10.63;82.91;97406.50;30001;983;1868;-61
2022/05/06 01:47:58;;;;;;;;;;;;;;;10.63;82.56;97417.34;30001;983;1868;-59
2022/05/06 01:48:29;;;;;;;;;;;;;;;10.63;82.78;97411.91;30001;983;1881;-61
2022/05/06 01:49:02;;;;;;;;;;;;;;;10.64;82.70;97408.13;30001;983;1877;-62
2022/05/06 01:49:33;;;;;;;;;;;;;;;10.62;82.80;97413.00;30001;983;1881;-60
2022/05/06 01:50:05;;;;;;;;;;;;;;;10.62;82.59;97421.16;30001;983;1877;-60
2022/05/06 01:50:39;;;;;;;;;;;;;;;10.61;82.98;97408.66;30001;982;1881;-61
2022/05/06 01:51:13;;;;;;;;;;;;;;;10.60;82.80;97412.47;30001;982;1877;-61
2022/05/06 01:51:45;;;;;;;;;;;;;;;10.60;82.99;97417.91;30001;982;1869;-61
2022/05/06 01:52:19;;;;;;;;;;;;;;;10.60;82.88;97417.91;30001;982;1856;-61
2022/05/06 01:52:50;;;;;;;;;;;;;;;10.60;82.90;97408.94;30001;982;1882;-60
2022/05/06 01:53:21;;;;;;;;;;;;;;;10.60;82.88;97407.03;30001;982;1878;-60
2022/05/06 01:53:52;;;;;;;;;;;;;;;10.59;82.85;97410.84;30001;983;1881;-59
2022/05/06 01:54:24;;;;;;;;;;;;;;;10.57;82.81;97413.03;30001;983;1877;-60
2022/05/06 01:54:55;;;;;;;;;;;;;;;10.57;82.79;97413.03;30001;983;1881;-61
2022/05/06 01:55:26;;;;;;;;;;;;;;;10.58;83.00;97414.66;30001;983;1877;-61
2022/05/06 01:55:57;;;;;;;;;;;;;;;10.60;82.66;97417.09;30001;983;1881;-62
2022/05/06 01:56:28;;;;;;;;;;;;;;;10.59;82.72;97413.56;30001;983;1877;-61
2022/05/06 01:57:00;;;;;;;;;;;;;;;10.57;83.04;97413.03;30001;983;1881;-60
2022/05/06 01:57:31;;;;;;;;;;;;;;;10.56;82.75;97414.12;30001;983;1864;-60
2022/05/06 01:58:02;;;;;;;;;;;;;;;10.55;83.44;97412.50;30001;982;1873;-61
2022/05/06 01:58:32;;;;;;;;;;;;;;;10.57;82.97;97413.03;30001;982;1864;-62
2022/05/06 01:59:03;;;;;;;;;;;;;;;10.59;83.06;97415.47;30001;982;1873;-61
2022/05/06 01:59:34;;;;;;;;;;;;;;;10.59;82.83;97413.56;30001;982;1783;-60
2022/05/06 02:00:06;;;;;;;;;;;;;;;10.59;82.94;97416.28;30001;982;1882;-59
2022/05/06 02:00:37;;;;;;;;;;;;;;;10.60;82.92;97412.47;30001;982;1865;-60
2022/05/06 02:01:07;;;;;;;;;;;;;;;10.60;82.80;97415.19;30001;983;1872;-61
2022/05/06 02:01:38;;;;;;;;;;;;;;;10.59;82.87;97416.28;30001;983;1877;-59
2022/05/06 02:02:09;;;;;;;;;;;;;;;10.58;82.86;97414.66;30001;983;1881;-61
2022/05/06 02:02:40;;;;;;;;;;;;;;;10.58;82.79;97413.84;30001;983;1877;-60
2022/05/06 02:05:16;;;;;;;;;;;;;;;10.56;82.87;97414.12;30001;983;1881;-61
2022/05/06 02:05:39;;;;;;;;;;;;;;;10.58;82.84;97408.41;30001;982;1877;-60
2022/05/06 02:06:11;;;;;;;;;;;;;;;10.57;82.97;97407.59;30001;982;1881;-60
2022/05/06 02:06:42;;;;;;;;;;;;;;;10.57;83.29;97413.03;30001;982;1877;-60
2022/05/06 02:07:13;;;;;;;;;;;;;;;10.58;83.27;97414.66;30001;982;1882;-60
2022/05/06 02:07:44;;;;;;;;;;;;;;;10.56;83.40;97416.84;30001;982;1878;-61
2022/05/06 02:08:15;;;;;;;;;;;;;;;10.56;83.12;97411.41;30001;982;1882;-61
2022/05/06 02:08:46;;;;;;;;;;;;;;;10.56;82.87;97408.69;30001;983;1877;-59
2022/05/06 02:09:17;;;;;;;;;;;;;;;10.55;83.58;97412.50;30001;983;1868;-60
2022/05/06 02:09:47;;;;;;;;;;;;;;;10.57;83.32;97412.22;30001;983;1868;-61
2022/05/06 02:10:20;;;;;;;;;;;;;;;10.55;83.23;97407.06;30001;983;1868;-61
2022/05/06 02:10:50;;;;;;;;;;;;;;;10.55;83.37;97409.78;30001;983;1868;-59
2022/05/06 02:11:21;;;;;;;;;;;;;;;10.54;83.41;97410.88;30001;983;1881;-60
2022/05/06 02:11:53;;;;;;;;;;;;;;;10.52;83.34;97410.34;30001;983;1877;-60
2022/05/06 02:12:24;;;;;;;;;;;;;;;10.53;83.16;97411.97;30001;983;1869;-61
2022/05/06 02:12:54;;;;;;;;;;;;;;;10.52;83.25;97407.63;30001;982;1869;-61
2022/05/06 02:13:26;;;;;;;;;;;;;;;10.51;83.66;97408.72;30001;982;1881;-60
2022/05/06 02:13:56;;;;;;;;;;;;;;;10.51;83.87;97408.72;30001;982;1877;-56
2022/05/06 02:14:28;;;;;;;;;;;;;;;10.50;83.79;97412.53;30001;982;1882;-61
2022/05/06 02:14:58;;;;;;;;;;;;;;;10.49;83.48;97416.31;30001;982;1878;-60
2022/05/06 02:15:33;;;;;;;;;;;;;;;10.48;83.78;97405.75;30001;983;1881;-60
2022/05/06 02:16:05;;;;;;;;;;;;;;;10.48;83.43;97414.69;30001;983;1877;-60
2022/05/06 02:16:35;;;;;;;;;;;;;;;10.48;83.22;97414.69;30001;983;1881;-62
2022/05/06 02:17:09;;;;;;;;;;;;;;;10.49;83.59;97408.19;30001;983;1864;-60
2022/05/06 02:17:41;;;;;;;;;;;;;;;10.50;83.29;97409.81;30001;983;1872;-61
2022/05/06 02:18:12;;;;;;;;;;;;;;;10.50;83.77;97415.22;30001;983;1877;-61
2022/05/06 02:18:43;;;;;;;;;;;;;;;10.50;83.61;97409.00;30001;983;1881;-60
2022/05/06 02:19:14;;;;;;;;;;;;;;;10.48;83.60;97405.75;30001;983;1877;-61
2022/05/06 02:19:45;;;;;;;;;;;;;;;10.46;84.07;97406.03;30001;983;1787;-60
2022/05/06 02:20:16;;;;;;;;;;;;;;;10.45;84.16;97409.03;30001;983;1877;-60
2022/05/06 02:20:47;;;;;;;;;;;;;;;10.44;84.03;97401.97;30001;982;1882;-60
2022/05/06 02:21:18;;;;;;;;;;;;;;;10.43;84.02;97406.59;30001;982;1754;-61
2022/05/06 02:21:48;;;;;;;;;;;;;;;10.41;84.01;97406.03;30001;982;1873;-61
2022/05/06 02:22:19;;;;;;;;;;;;;;;10.43;83.95;97412.00;30001;982;1877;-60
2022/05/06 02:22:52;;;;;;;;;;;;;;;10.44;84.04;97404.69;30001;982;1869;-62
2022/05/06 02:23:25;;;;;;;;;;;;;;;10.45;83.85;97404.41;30001;983;1868;-60
2022/05/06 02:23:55;;;;;;;;;;;;;;;10.46;84.12;97402.50;30001;983;1881;-60
2022/05/06 02:24:26;;;;;;;;;;;;;;;10.43;84.19;97406.59;30001;983;1877;-60
2022/05/06 02:24:57;;;;;;;;;;;;;;;10.42;83.95;97402.25;30001;983;1881;-60
2022/05/06 02:25:28;;;;;;;;;;;;;;;10.41;84.11;97404.16;30001;983;1877;-60
2022/05/06 02:25:59;;;;;;;;;;;;;;;10.42;84.13;97410.37;30001;983;1881;-61
2022/05/06 02:26:31;;;;;;;;;;;;;;;10.43;84.09;97405.78;30001;983;1877;-60
2022/05/06 02:27:02;;;;;;;;;;;;;;;10.41;84.04;97406.03;30001;983;1882;-61
2022/05/06 02:27:33;;;;;;;;;;;;;;;10.41;84.17;97398.72;30001;986;1877;-55
2022/05/06 02:28:04;;;;;;;;;;;;;;;10.43;83.87;97406.59;30001;982;1869;-61
2022/05/06 02:28:35;;;;;;;;;;;;;;;10.42;84.41;97402.25;30001;982;1868;-61
2022/05/06 02:29:06;;;;;;;;;;;;;;;10.41;84.01;97403.34;30001;982;1869;-61
2022/05/06 02:29:37;;;;;;;;;;;;;;;10.41;83.93;97404.16;30001;982;1869;-57
2022/05/06 02:33:24;;;;;;;;;;;;;;;10.48;83.08;97411.97;30001;971;1901;-62
2022/05/06 02:33:55;;;;;;;;;;;;;;;10.48;83.37;97408.47;30001;983;1877;-60
2022/05/06 02:34:25;;;;;;;;;;;;;;;10.47;83.60;97407.66;30001;983;1868;-60
2022/05/06 02:34:56;;;;;;;;;;;;;;;10.46;83.27;97411.44;30001;983;1855;-60
2022/05/06 02:35:28;;;;;;;;;;;;;;;10.44;83.31;97405.50;30001;983;1881;-60
2022/05/06 02:35:59;;;;;;;;;;;;;;;10.44;83.12;97408.19;30001;982;1877;-61
2022/05/06 02:36:30;;;;;;;;;;;;;;;10.43;83.66;97406.59;30001;982;1882;-60
2022/05/06 02:37:02;;;;;;;;;;;;;;;10.44;83.49;97413.62;30001;982;1877;-61
2022/05/06 02:37:32;;;;;;;;;;;;;;;10.44;83.38;97408.19;30001;982;1882;-60
2022/05/06 02:38:08;;;;;;;;;;;;;;;10.45;83.53;97403.59;30001;983;1877;-60
2022/05/06 02:38:38;;;;;;;;;;;;;;;10.46;83.42;97406.03;30001;983;1881;-61
2022/05/06 02:39:09;;;;;;;;;;;;;;;10.45;83.30;97409.81;30001;983;1863;-62
2022/05/06 02:39:40;;;;;;;;;;;;;;;10.45;83.46;97404.41;30001;983;1872;-60
2022/05/06 02:40:12;;;;;;;;;;;;;;;10.46;83.48;97406.03;30001;983;1877;-60
2022/05/06 02:40:42;;;;;;;;;;;;;;;10.45;83.32;97404.41;30001;983;1881;-60
2022/05/06 02:41:16;;;;;;;;;;;;;;;10.45;83.57;97404.41;30001;983;1877;-61
2022/05/06 02:41:47;;;;;;;;;;;;;;;10.43;83.73;97411.19;30001;983;1881;-59
2022/05/06 02:42:17;;;;;;;;;;;;;;;10.42;83.53;97410.37;30001;983;1877;-61
2022/05/06 02:42:48;;;;;;;;;;;;;;;10.42;83.50;97413.09;30001;983;1881;-60
2022/05/06 02:43:19;;;;;;;;;;;;;;;10.41;84.00;97412.28;30001;982;1877;-61
2022/05/06 02:43:50;;;;;;;;;;;;;;;10.41;83.51;97403.34;30001;982;1882;-61
2022/05/06 02:44:20;;;;;;;;;;;;;;;10.41;84.10;97406.03;30001;982;1864;-60
2022/05/06 02:44:51;;;;;;;;;;;;;;;10.39;84.37;97411.78;30001;982;1860;-62
2022/05/06 02:45:22;;;;;;;;;;;;;;;10.41;84.04;97414.19;30001;982;1877;-60
2022/05/06 02:45:53;;;;;;;;;;;;;;;10.38;84.14;97404.72;30001;983;1881;-61
2022/05/06 02:46:25;;;;;;;;;;;;;;;10.38;84.05;97414.78;30001;983;1877;-61
2022/05/06 02:46:55;;;;;;;;;;;;;;;10.37;84.15;97405.00;30001;983;1881;-61
2022/05/06 02:47:26;;;;;;;;;;;;;;;10.37;84.41;97405.00;30001;983;1877;-60
2022/05/06 02:47:59;;;;;;;;;;;;;;;10.38;84.46;97409.34;30001;983;1881;-62
2022/05/06 02:48:30;;;;;;;;;;;;;;;10.40;84.42;97412.56;30001;983;1877;-61
2022/05/06 02:49:02;;;;;;;;;;;;;;;10.41;84.05;97408.75;30001;983;1881;-60
2022/05/06 02:49:33;;;;;;;;;;;;;;;10.42;84.14;97413.09;30001;983;1877;-61
2022/05/06 02:50:04;;;;;;;;;;;;;;;10.42;83.93;97410.37;30001;982;1868;-62
2022/05/06 02:50:35;;;;;;;;;;;;;;;10.40;84.17;97412.56;30001;982;1868;-60
2022/05/06 02:51:08;;;;;;;;;;;;;;;10.38;83.79;97410.16;30001;982;1868;-60
2022/05/06 02:51:39;;;;;;;;;;;;;;;10.38;83.84;97409.34;30001;982;1869;-60
2022/05/06 02:52:10;;;;;;;;;;;;;;;10.38;83.80;97417.47;30001;982;1882;-61
2022/05/06 02:52:41;;;;;;;;;;;;;;;10.37;84.17;97407.72;30001;982;1878;-61
2022/05/06 02:53:11;;;;;;;;;;;;;;;10.39;84.00;97410.97;30001;983;1881;-61
2022/05/06 02:53:42;;;;;;;;;;;;;;;10.39;83.93;97408.25;30001;983;1877;-60
2022/05/06 02:54:13;;;;;;;;;;;;;;;10.39;83.72;97410.97;30001;983;1881;-62
2022/05/06 02:54:46;;;;;;;;;;;;;;;10.38;83.87;97412.88;30001;983;1864;-61